Back to Top

Language: 

My Weather Underground Personal Weather Station Historical Data with Graphs...

Delerius Weather Station Historical Data
Daily Summary for April 11, 2017 Units:  English    Metric   Both
« Previous Day
Next Day »
Daily Weekly Monthly Yearly Custom
  High: Low: Average:
Temperature: 57.7 °F 39.9 °F 48.8 °F
Dew Point: 43.5 °F 36.5 °F 40.6 °F
Humidity: 89 % 54 % 74 %
Wind Speed: 17.0 mph 0.0 mph 9.4 mph
Wind Gust: 28.0 mph - -
Wind:- - West
Pressure: 30.33 in 30.12 in -
Precipitation: 0.00 in    
Historical Graphs
 
 
Tabular Data for April 11, 2017
Time Temperature Dew Point Pressure Wind Wind Speed Wind Gust Humidity Rainfall Rate (Hourly) solar Conditions
00:04 44.8 °F 38.3 °F 30.32 in WNW 9.0 mph 15.0 mph 78 % 0.00 in 0 W/m2
00:10 44.8 °F 38.3 °F 30.32 in WNW 7.0 mph 13.0 mph 78 % 0.00 in 0 W/m2
00:15 44.4 °F 38.3 °F 30.32 in WNW 7.0 mph 12.0 mph 79 % 0.00 in 0 W/m2
00:20 44.2 °F 38.1 °F 30.32 in WNW 6.0 mph 12.0 mph 79 % 0.00 in 0 W/m2
00:25 44.2 °F 38.1 °F 30.33 in WNW 6.0 mph 11.0 mph 79 % 0.00 in 0 W/m2
00:30 44.1 °F 38.3 °F 30.33 in WNW 6.0 mph 11.0 mph 80 % 0.00 in 0 W/m2
00:35 43.9 °F 38.1 °F 30.33 in WNW 7.0 mph 11.0 mph 80 % 0.00 in 0 W/m2
00:40 43.9 °F 38.1 °F 30.33 in WNW 7.0 mph 11.0 mph 80 % 0.00 in 0 W/m2
00:45 43.9 °F 38.4 °F 30.32 in WNW 6.0 mph 10.0 mph 81 % 0.00 in 0 W/m2
00:50 43.7 °F 38.3 °F 30.32 in WNW 6.0 mph 10.0 mph 81 % 0.00 in 0 W/m2
00:55 43.5 °F 38.4 °F 30.32 in WNW 6.0 mph 10.0 mph 82 % 0.00 in 0 W/m2
01:00 43.5 °F 38.4 °F 30.32 in WNW 6.0 mph 12.0 mph 82 % 0.00 in 0 W/m2
01:05 43.5 °F 38.4 °F 30.32 in WNW 6.0 mph 12.0 mph 82 % 0.00 in 0 W/m2
01:10 43.5 °F 38.7 °F 30.32 in WNW 6.0 mph 11.0 mph 83 % 0.00 in 0 W/m2
01:15 43.3 °F 38.5 °F 30.32 in WNW 5.0 mph 11.0 mph 83 % 0.00 in 0 W/m2
01:20 43.3 °F 38.5 °F 30.33 in WNW 5.0 mph 9.0 mph 83 % 0.00 in 0 W/m2
01:25 43.3 °F 38.5 °F 30.32 in WNW 7.0 mph 14.0 mph 83 % 0.00 in 0 W/m2
01:30 43.3 °F 38.5 °F 30.32 in WNW 8.0 mph 14.0 mph 83 % 0.00 in 0 W/m2
01:35 43.3 °F 38.5 °F 30.32 in WNW 7.0 mph 12.0 mph 83 % 0.00 in 0 W/m2
01:40 43.3 °F 38.5 °F 30.32 in WNW 7.0 mph 11.0 mph 83 % 0.00 in 0 W/m2
01:45 43.3 °F 38.8 °F 30.32 in WNW 8.0 mph 15.0 mph 84 % 0.00 in 0 W/m2
01:50 43.5 °F 38.7 °F 30.33 in WNW 9.0 mph 15.0 mph 83 % 0.00 in 0 W/m2
01:55 43.7 °F 38.9 °F 30.33 in WNW 8.0 mph 14.0 mph 83 % 0.00 in 0 W/m2
02:00 43.7 °F 38.9 °F 30.33 in WNW 6.0 mph 11.0 mph 83 % 0.00 in 0 W/m2
02:05 43.7 °F 38.9 °F 30.32 in WNW 6.0 mph 9.0 mph 83 % 0.00 in 0 W/m2
02:10 43.7 °F 38.9 °F 30.32 in WNW 6.0 mph 11.0 mph 83 % 0.00 in 0 W/m2
02:15 43.7 °F 38.9 °F 30.32 in WNW 7.0 mph 11.0 mph 83 % 0.00 in 0 W/m2
02:20 43.5 °F 38.7 °F 30.32 in WNW 6.0 mph 11.0 mph 83 % 0.00 in 0 W/m2
02:25 43.5 °F 38.7 °F 30.32 in WNW 6.0 mph 11.0 mph 83 % 0.00 in 0 W/m2
02:30 43.5 °F 38.7 °F 30.32 in WNW 4.0 mph 11.0 mph 83 % 0.00 in 0 W/m2
02:35 43.3 °F 38.5 °F 30.32 in NW 4.0 mph 9.0 mph 83 % 0.00 in 0 W/m2
02:40 43.3 °F 38.5 °F 30.32 in NW 5.0 mph 9.0 mph 83 % 0.00 in 0 W/m2
02:45 43.2 °F 38.3 °F 30.32 in WNW 6.0 mph 9.0 mph 83 % 0.00 in 0 W/m2
02:50 43.0 °F 38.2 °F 30.32 in WNW 7.0 mph 13.0 mph 83 % 0.00 in 0 W/m2
02:55 43.0 °F 38.2 °F 30.32 in WNW 9.0 mph 14.0 mph 83 % 0.00 in 0 W/m2
03:00 43.0 °F 38.2 °F 30.32 in WNW 9.0 mph 14.0 mph 83 % 0.00 in 0 W/m2
03:05 43.0 °F 38.2 °F 30.32 in WNW 9.0 mph 13.0 mph 83 % 0.00 in 0 W/m2
03:10 42.8 °F 38.0 °F 30.32 in WNW 7.0 mph 13.0 mph 83 % 0.00 in 0 W/m2
03:16 42.6 °F 37.8 °F 30.32 in West 6.0 mph 11.0 mph 83 % 0.00 in 0 W/m2
03:21 42.6 °F 37.8 °F 30.32 in West 4.0 mph 8.0 mph 83 % 0.00 in 0 W/m2
03:26 42.4 °F 37.6 °F 30.31 in West 4.0 mph 7.0 mph 83 % 0.00 in 0 W/m2
03:31 42.3 °F 37.8 °F 30.32 in West 3.0 mph 7.0 mph 84 % 0.00 in 0 W/m2
03:36 42.1 °F 37.6 °F 30.32 in West 3.0 mph 6.0 mph 84 % 0.00 in 0 W/m2
03:41 42.1 °F 37.6 °F 30.32 in West 3.0 mph 9.0 mph 84 % 0.00 in 0 W/m2
03:46 42.1 °F 37.6 °F 30.32 in West 4.0 mph 10.0 mph 84 % 0.00 in 0 W/m2
03:51 42.1 °F 37.6 °F 30.32 in West 4.0 mph 10.0 mph 84 % 0.00 in 0 W/m2
03:56 41.9 °F 37.4 °F 30.32 in West 3.0 mph 7.0 mph 84 % 0.00 in 0 W/m2
04:01 41.7 °F 37.2 °F 30.32 in West 3.0 mph 7.0 mph 84 % 0.00 in 0 W/m2
04:06 41.7 °F 37.2 °F 30.32 in West 3.0 mph 7.0 mph 84 % 0.00 in 0 W/m2
04:11 41.7 °F 37.5 °F 30.32 in WNW 4.0 mph 8.0 mph 85 % 0.00 in 0 W/m2
04:16 41.7 °F 37.5 °F 30.32 in WNW 5.0 mph 11.0 mph 85 % 0.00 in 0 W/m2
04:21 41.7 °F 37.5 °F 30.32 in WNW 6.0 mph 11.0 mph 85 % 0.00 in 0 W/m2
04:26 41.7 °F 37.5 °F 30.32 in WNW 5.0 mph 10.0 mph 85 % 0.00 in 0 W/m2
04:31 41.7 °F 37.5 °F 30.32 in WNW 5.0 mph 10.0 mph 85 % 0.00 in 0 W/m2
04:36 41.7 °F 37.5 °F 30.32 in WNW 7.0 mph 12.0 mph 85 % 0.00 in 0 W/m2
04:41 41.9 °F 37.7 °F 30.32 in WNW 7.0 mph 12.0 mph 85 % 0.00 in 0 W/m2
04:46 41.7 °F 37.5 °F 30.31 in WNW 7.0 mph 10.0 mph 85 % 0.00 in 0 W/m2
04:51 41.7 °F 37.5 °F 30.32 in WNW 7.0 mph 12.0 mph 85 % 0.00 in 0 W/m2
04:56 41.7 °F 37.5 °F 30.32 in WNW 8.0 mph 12.0 mph 85 % 0.00 in 0 W/m2
05:01 41.7 °F 37.5 °F 30.32 in WNW 7.0 mph 12.0 mph 85 % 0.00 in 0 W/m2
05:06 41.5 °F 37.4 °F 30.32 in WNW 6.0 mph 10.0 mph 85 % 0.00 in 0 W/m2
05:11 41.5 °F 37.4 °F 30.32 in WNW 6.0 mph 9.0 mph 85 % 0.00 in 0 W/m2
05:16 41.5 °F 37.4 °F 30.31 in WNW 6.0 mph 9.0 mph 85 % 0.00 in 0 W/m2
05:21 41.4 °F 37.2 °F 30.31 in WNW 7.0 mph 13.0 mph 85 % 0.00 in 0 W/m2
05:26 41.4 °F 37.5 °F 30.32 in WNW 9.0 mph 13.0 mph 86 % 0.00 in 0 W/m2
05:31 41.4 °F 37.5 °F 30.32 in WNW 8.0 mph 12.0 mph 86 % 0.00 in 0 W/m2
05:36 41.4 °F 37.5 °F 30.32 in WNW 6.0 mph 11.0 mph 86 % 0.00 in 0 W/m2
05:41 41.4 °F 37.5 °F 30.32 in WNW 5.0 mph 8.0 mph 86 % 0.00 in 0 W/m2
05:46 41.2 °F 37.3 °F 30.32 in WNW 3.0 mph 6.0 mph 86 % 0.00 in 0 W/m2
05:51 41.2 °F 37.3 °F 30.32 in WNW 1.0 mph 4.0 mph 86 % 0.00 in 0 W/m2
05:56 41.2 °F 37.3 °F 30.32 in Calm     86 % 0.00 in 0 W/m2
06:01 41.2 °F 37.3 °F 30.32 in Calm     86 % 0.00 in 0 W/m2
06:06 40.8 °F 37.0 °F 30.32 in Calm     86 % 0.00 in 0 W/m2
06:11 40.6 °F 36.8 °F 30.32 in Calm     86 % 0.00 in 7 W/m2
06:16 40.5 °F 36.6 °F 30.32 in Calm     86 % 0.00 in 9 W/m2
06:21 40.3 °F 36.7 °F 30.32 in Calm     87 % 0.00 in 11 W/m2
06:26 40.1 °F 36.5 °F 30.32 in WNW 1.0 mph 4.0 mph 87 % 0.00 in 16 W/m2
06:31 39.9 °F 36.7 °F 30.32 in WNW 2.0 mph 5.0 mph 88 % 0.00 in 25 W/m2
06:36 40.3 °F 37.3 °F 30.32 in WNW 3.0 mph 7.0 mph 89 % 0.00 in 32 W/m2
06:41 40.5 °F 37.5 °F 30.32 in WNW 2.0 mph 7.0 mph 89 % 0.00 in 33 W/m2
06:47 40.6 °F 37.7 °F 30.33 in Calm   5.0 mph 89 % 0.00 in 40 W/m2
06:52 40.8 °F 37.8 °F 30.33 in Calm     89 % 0.00 in 53 W/m2
06:57 41.2 °F 38.2 °F 30.32 in Calm   1.0 mph 89 % 0.00 in 44 W/m2
07:02 41.4 °F 38.4 °F 30.32 in Calm   1.0 mph 89 % 0.00 in 51 W/m2
07:07 41.5 °F 38.5 °F 30.32 in Calm     89 % 0.00 in 74 W/m2
07:12 41.7 °F 38.7 °F 30.32 in Calm     89 % 0.00 in 69 W/m2
07:17 42.1 °F 39.1 °F 30.31 in Calm   2.0 mph 89 % 0.00 in 67 W/m2
07:22 42.4 °F 39.1 °F 30.31 in Calm   4.0 mph 88 % 0.00 in 70 W/m2
07:27 42.8 °F 39.5 °F 30.31 in West 1.0 mph 4.0 mph 88 % 0.00 in 76 W/m2
07:32 43.2 °F 39.6 °F 30.32 in West 1.0 mph 5.0 mph 87 % 0.00 in 88 W/m2
07:37 43.3 °F 39.7 °F 30.31 in WSW 1.0 mph 5.0 mph 87 % 0.00 in 97 W/m2
07:42 43.5 °F 39.6 °F 30.31 in West 1.0 mph 6.0 mph 86 % 0.00 in 111 W/m2
07:47 43.9 °F 40.0 °F 30.31 in West 2.0 mph 6.0 mph 86 % 0.00 in 113 W/m2
07:52 44.4 °F 40.5 °F 30.31 in West 5.0 mph 12.0 mph 86 % 0.00 in 113 W/m2
07:57 45.0 °F 40.7 °F 30.31 in West 7.0 mph 12.0 mph 85 % 0.00 in 121 W/m2
08:02 45.1 °F 40.6 °F 30.31 in West 7.0 mph 13.0 mph 84 % 0.00 in 141 W/m2
08:07 45.5 °F 40.6 °F 30.31 in West 7.0 mph 13.0 mph 83 % 0.00 in 158 W/m2
08:12 45.9 °F 41.0 °F 30.32 in West 6.0 mph 12.0 mph 83 % 0.00 in 250 W/m2
08:17 46.2 °F 41.3 °F 30.31 in West 3.0 mph 9.0 mph 83 % 0.00 in 169 W/m2
08:22 46.6 °F 41.4 °F 30.31 in West 3.0 mph 10.0 mph 82 % 0.00 in 181 W/m2
08:27 46.9 °F 41.7 °F 30.31 in West 6.0 mph 13.0 mph 82 % 0.00 in 239 W/m2
08:32 47.3 °F 42.1 °F 30.31 in West 7.0 mph 13.0 mph 82 % 0.00 in 179 W/m2
08:37 47.7 °F 42.1 °F 30.31 in West 8.0 mph 18.0 mph 81 % 0.00 in 153 W/m2
08:42 47.7 °F 41.8 °F 30.31 in WNW 10.0 mph 19.0 mph 80 % 0.00 in 144 W/m2
08:47 47.7 °F 41.5 °F 30.32 in WNW 11.0 mph 19.0 mph 79 % 0.00 in 128 W/m2
08:52 47.7 °F 41.1 °F 30.32 in WNW 11.0 mph 21.0 mph 78 % 0.00 in 232 W/m2
08:57 47.8 °F 41.3 °F 30.32 in WNW 11.0 mph 21.0 mph 78 % 0.00 in 186 W/m2
09:02 48.0 °F 41.5 °F 30.32 in WNW 11.0 mph 19.0 mph 78 % 0.00 in 258 W/m2
09:07 48.2 °F 41.7 °F 30.32 in West 10.0 mph 19.0 mph 78 % 0.00 in 279 W/m2
09:12 48.4 °F 41.5 °F 30.32 in West 11.0 mph 21.0 mph 77 % 0.00 in 478 W/m2
09:17 48.7 °F 41.8 °F 30.31 in West 12.0 mph 21.0 mph 77 % 0.00 in 299 W/m2
09:22 48.9 °F 41.7 °F 30.31 in West 12.0 mph 20.0 mph 76 % 0.00 in 411 W/m2
09:27 49.3 °F 41.7 °F 30.32 in West 12.0 mph 21.0 mph 75 % 0.00 in 257 W/m2
09:32 49.5 °F 41.5 °F 30.31 in West 13.0 mph 21.0 mph 74 % 0.00 in 429 W/m2
09:37 49.5 °F 41.5 °F 30.31 in West 13.0 mph 21.0 mph 74 % 0.00 in 362 W/m2
09:42 49.6 °F 41.7 °F 30.31 in West 11.0 mph 20.0 mph 74 % 0.00 in 343 W/m2
09:47 50.2 °F 42.2 °F 30.32 in West 10.0 mph 21.0 mph 74 % 0.00 in 647 W/m2
09:53 50.7 °F 42.4 °F 30.31 in West 10.0 mph 21.0 mph 73 % 0.00 in 211 W/m2
09:58 50.5 °F 41.5 °F 30.31 in West 11.0 mph 18.0 mph 71 % 0.00 in 311 W/m2
10:03 50.5 °F 41.8 °F 30.31 in West 12.0 mph 20.0 mph 72 % 0.00 in 257 W/m2
10:08 50.5 °F 41.8 °F 30.31 in West 14.0 mph 24.0 mph 72 % 0.00 in 452 W/m2
10:13 50.5 °F 41.8 °F 30.31 in West 14.0 mph 24.0 mph 72 % 0.00 in 327 W/m2
10:18 50.7 °F 42.0 °F 30.31 in West 13.0 mph 20.0 mph 72 % 0.00 in 281 W/m2
10:23 50.9 °F 41.8 °F 30.31 in West 12.0 mph 21.0 mph 71 % 0.00 in 406 W/m2
10:28 51.1 °F 42.0 °F 30.31 in West 12.0 mph 23.0 mph 71 % 0.00 in 555 W/m2
10:33 51.1 °F 41.6 °F 30.32 in WNW 12.0 mph 23.0 mph 70 % 0.00 in 285 W/m2
10:38 51.3 °F 42.2 °F 30.31 in WNW 9.0 mph 18.0 mph 71 % 0.00 in 239 W/m2
10:43 51.3 °F 42.2 °F 30.32 in West 9.0 mph 20.0 mph 71 % 0.00 in 229 W/m2
10:48 51.3 °F 41.8 °F 30.32 in West 11.0 mph 20.0 mph 70 % 0.00 in 176 W/m2
10:53 51.1 °F 42.0 °F 30.31 in WNW 12.0 mph 19.0 mph 71 % 0.00 in 239 W/m2
10:58 51.1 °F 42.0 °F 30.31 in WNW 10.0 mph 19.0 mph 71 % 0.00 in 383 W/m2
11:03 51.6 °F 42.5 °F 30.31 in WNW 10.0 mph 21.0 mph 71 % 0.00 in 473 W/m2
11:08 52.5 °F 43.0 °F 30.31 in WNW 12.0 mph 24.0 mph 70 % 0.00 in 422 W/m2
11:13 52.9 °F 42.6 °F 30.31 in WNW 13.0 mph 24.0 mph 68 % 0.00 in 336 W/m2
11:18 52.5 °F 42.3 °F 30.30 in West 13.0 mph 22.0 mph 68 % 0.00 in 257 W/m2
11:23 52.7 °F 42.8 °F 30.30 in West 11.0 mph 22.0 mph 69 % 0.00 in 533 W/m2
11:28 52.9 °F 43.0 °F 30.30 in West 10.0 mph 19.0 mph 69 % 0.00 in 531 W/m2
11:33 53.1 °F 42.4 °F 30.30 in West 12.0 mph 21.0 mph 67 % 0.00 in 461 W/m2
11:38 53.4 °F 42.7 °F 30.30 in West 13.0 mph 24.0 mph 67 % 0.00 in 330 W/m2
11:43 53.4 °F 42.7 °F 30.30 in WNW 14.0 mph 24.0 mph 67 % 0.00 in 322 W/m2
11:48 53.4 °F 42.7 °F 30.30 in WNW 14.0 mph 23.0 mph 67 % 0.00 in 225 W/m2
11:53 53.2 °F 42.9 °F 30.30 in WNW 12.0 mph 22.0 mph 68 % 0.00 in 323 W/m2
11:58 53.2 °F 42.6 °F 30.30 in WNW 11.0 mph 20.0 mph 67 % 0.00 in 399 W/m2
12:03 53.1 °F 42.4 °F 30.29 in WNW 13.0 mph 24.0 mph 67 % 0.00 in 341 W/m2
12:08 53.1 °F 42.4 °F 30.29 in West 14.0 mph 24.0 mph 67 % 0.00 in 383 W/m2
12:13 53.1 °F 42.4 °F 30.29 in West 15.0 mph 26.0 mph 67 % 0.00 in 250 W/m2
12:18 52.5 °F 41.9 °F 30.29 in West 16.0 mph 26.0 mph 67 % 0.00 in 251 W/m2
12:23 52.3 °F 42.1 °F 30.28 in West 14.0 mph 26.0 mph 68 % 0.00 in 218 W/m2
12:28 52.2 °F 42.3 °F 30.28 in West 11.0 mph 20.0 mph 69 % 0.00 in 181 W/m2
12:33 52.2 °F 42.3 °F 30.28 in West 12.0 mph 21.0 mph 69 % 0.00 in 156 W/m2
12:38 52.0 °F 42.1 °F 30.28 in West 11.0 mph 21.0 mph 69 % 0.00 in 158 W/m2
12:43 52.0 °F 42.5 °F 30.28 in West 11.0 mph 18.0 mph 70 % 0.00 in 197 W/m2
12:48 52.0 °F 42.5 °F 30.28 in West 11.0 mph 18.0 mph 70 % 0.00 in 181 W/m2
12:53 51.6 °F 42.2 °F 30.28 in West 11.0 mph 19.0 mph 70 % 0.00 in 186 W/m2
12:58 51.6 °F 42.2 °F 30.27 in West 10.0 mph 19.0 mph 70 % 0.00 in 183 W/m2
13:04 52.0 °F 42.5 °F 30.27 in West 10.0 mph 18.0 mph 70 % 0.00 in 185 W/m2
13:09 52.2 °F 42.7 °F 30.27 in West 9.0 mph 16.0 mph 70 % 0.00 in 202 W/m2
13:14 52.3 °F 42.5 °F 30.27 in West 9.0 mph 19.0 mph 69 % 0.00 in 220 W/m2
13:19 52.7 °F 42.8 °F 30.27 in West 12.0 mph 23.0 mph 69 % 0.00 in 281 W/m2
13:24 53.1 °F 43.2 °F 30.26 in WNW 13.0 mph 23.0 mph 69 % 0.00 in 341 W/m2
13:29 53.6 °F 43.3 °F 30.26 in WNW 13.0 mph 26.0 mph 68 % 0.00 in 436 W/m2
13:34 54.1 °F 43.0 °F 30.26 in West 16.0 mph 26.0 mph 66 % 0.00 in 919 W/m2
13:39 54.9 °F 42.9 °F 30.26 in West 15.0 mph 25.0 mph 64 % 0.00 in 650 W/m2
13:44 55.4 °F 43.0 °F 30.26 in West 14.0 mph 26.0 mph 63 % 0.00 in 302 W/m2
13:49 55.0 °F 41.8 °F 30.26 in WNW 16.0 mph 27.0 mph 61 % 0.00 in 436 W/m2
13:54 55.2 °F 42.4 °F 30.26 in WNW 16.0 mph 27.0 mph 62 % 0.00 in 512 W/m2
13:59 55.6 °F 42.8 °F 30.26 in WNW 15.0 mph 24.0 mph 62 % 0.00 in 353 W/m2
14:04 55.9 °F 43.1 °F 30.26 in West 12.0 mph 22.0 mph 62 % 0.00 in 459 W/m2
14:09 56.7 °F 42.9 °F 30.26 in West 11.0 mph 21.0 mph 60 % 0.00 in 960 W/m2
14:13 56.8 °F 42.7 °F 30.26 in West 12.0 mph 22.0 mph 59 % 0.00 in 657 W/m2
14:18 56.8 °F 42.7 °F 30.26 in West 14.0 mph 22.0 mph 59 % 0.00 in 383 W/m2
14:23 56.8 °F 43.1 °F 30.26 in WNW 14.0 mph 26.0 mph 60 % 0.00 in 664 W/m2
14:28 57.2 °F 43.4 °F 30.25 in WNW 13.0 mph 26.0 mph 60 % 0.00 in 784 W/m2
14:33 57.7 °F 43.5 °F 30.26 in WNW 12.0 mph 20.0 mph 59 % 0.00 in 561 W/m2
14:38 57.6 °F 42.4 °F 30.25 in WNW 13.0 mph 25.0 mph 57 % 0.00 in 577 W/m2
14:43 57.4 °F 42.3 °F 30.25 in WNW 15.0 mph 26.0 mph 57 % 0.00 in 798 W/m2
14:48 57.7 °F 42.1 °F 30.25 in WNW 15.0 mph 26.0 mph 56 % 0.00 in 700 W/m2
14:53 57.7 °F 41.2 °F 30.25 in West 15.0 mph 27.0 mph 54 % 0.00 in 661 W/m2
14:58 57.7 °F 41.7 °F 30.25 in West 15.0 mph 27.0 mph 55 % 0.00 in 596 W/m2
15:03 57.7 °F 42.1 °F 30.25 in West 14.0 mph 26.0 mph 56 % 0.00 in 359 W/m2
15:08 57.4 °F 41.8 °F 30.25 in WNW 15.0 mph 26.0 mph 56 % 0.00 in 613 W/m2
15:13 57.2 °F 41.6 °F 30.25 in WNW 14.0 mph 26.0 mph 56 % 0.00 in 490 W/m2
15:18 57.0 °F 41.9 °F 30.25 in WNW 13.0 mph 23.0 mph 57 % 0.00 in 425 W/m2
15:23 56.5 °F 41.4 °F 30.25 in WNW 13.0 mph 22.0 mph 57 % 0.00 in 424 W/m2
15:28 55.9 °F 41.4 °F 30.25 in WNW 16.0 mph 28.0 mph 58 % 0.00 in 396 W/m2
15:33 55.2 °F 41.1 °F 30.25 in WNW 16.0 mph 28.0 mph 59 % 0.00 in 311 W/m2
15:38 54.9 °F 41.7 °F 30.25 in WNW 15.0 mph 28.0 mph 61 % 0.00 in 350 W/m2
15:43 54.9 °F 41.7 °F 30.25 in WNW 15.0 mph 28.0 mph 61 % 0.00 in 494 W/m2
15:48 55.0 °F 41.8 °F 30.24 in WNW 16.0 mph 27.0 mph 61 % 0.00 in 482 W/m2
15:53 55.2 °F 42.0 °F 30.24 in WNW 15.0 mph 27.0 mph 61 % 0.00 in 390 W/m2
15:58 55.2 °F 42.0 °F 30.24 in WNW 14.0 mph 25.0 mph 61 % 0.00 in 478 W/m2
16:03 55.2 °F 42.0 °F 30.24 in West 15.0 mph 25.0 mph 61 % 0.00 in 401 W/m2
16:08 54.9 °F 42.1 °F 30.23 in West 15.0 mph 25.0 mph 62 % 0.00 in 541 W/m2
16:13 55.2 °F 42.0 °F 30.23 in WNW 16.0 mph 27.0 mph 61 % 0.00 in 529 W/m2
16:18 55.2 °F 42.0 °F 30.23 in West 17.0 mph 27.0 mph 61 % 0.00 in 520 W/m2
16:23 55.0 °F 41.8 °F 30.22 in West 17.0 mph 26.0 mph 61 % 0.00 in 323 W/m2
16:28 55.0 °F 42.3 °F 30.22 in West 14.0 mph 26.0 mph 62 % 0.00 in 251 W/m2
16:33 54.7 °F 41.5 °F 30.22 in West 13.0 mph 23.0 mph 61 % 0.00 in 192 W/m2
16:38 54.7 °F 41.9 °F 30.22 in West 14.0 mph 25.0 mph 62 % 0.00 in 183 W/m2
16:43 54.7 °F 41.9 °F 30.22 in West 12.0 mph 25.0 mph 62 % 0.00 in 185 W/m2
16:48 54.5 °F 42.2 °F 30.22 in West 12.0 mph 22.0 mph 63 % 0.00 in 188 W/m2
16:53 54.3 °F 41.6 °F 30.22 in WNW 13.0 mph 23.0 mph 62 % 0.00 in 199 W/m2
16:58 54.1 °F 41.4 °F 30.22 in WNW 14.0 mph 23.0 mph 62 % 0.00 in 162 W/m2
17:03 53.8 °F 41.5 °F 30.22 in WNW 13.0 mph 23.0 mph 63 % 0.00 in 172 W/m2
17:08 53.4 °F 41.5 °F 30.22 in WNW 13.0 mph 23.0 mph 64 % 0.00 in 160 W/m2
17:13 53.4 °F 41.5 °F 30.22 in WNW 12.0 mph 22.0 mph 64 % 0.00 in 167 W/m2
17:18 53.4 °F 41.9 °F 30.21 in West 11.0 mph 21.0 mph 65 % 0.00 in 265 W/m2
17:23 53.8 °F 41.9 °F 30.21 in West 12.0 mph 22.0 mph 64 % 0.00 in 334 W/m2
17:28 54.1 °F 41.8 °F 30.21 in West 13.0 mph 22.0 mph 63 % 0.00 in 272 W/m2
17:33 54.1 °F 41.4 °F 30.20 in West 14.0 mph 23.0 mph 62 % 0.00 in 216 W/m2
17:38 54.0 °F 41.6 °F 30.20 in West 14.0 mph 23.0 mph 63 % 0.00 in 179 W/m2
17:43 54.0 °F 41.6 °F 30.20 in West 14.0 mph 24.0 mph 63 % 0.00 in 185 W/m2
17:48 53.8 °F 41.1 °F 30.20 in West 15.0 mph 25.0 mph 62 % 0.00 in 137 W/m2
17:53 53.6 °F 40.9 °F 30.20 in West 15.0 mph 25.0 mph 62 % 0.00 in 127 W/m2
17:58 53.2 °F 41.0 °F 30.19 in West 15.0 mph 24.0 mph 63 % 0.00 in 162 W/m2
18:03 53.1 °F 40.8 °F 30.19 in West 17.0 mph 26.0 mph 63 % 0.00 in 113 W/m2
18:08 52.9 °F 41.0 °F 30.19 in West 17.0 mph 26.0 mph 64 % 0.00 in 91 W/m2
18:14 52.9 °F 41.0 °F 30.19 in West 16.0 mph 25.0 mph 64 % 0.00 in 86 W/m2
18:19 52.7 °F 41.3 °F 30.19 in West 15.0 mph 25.0 mph 65 % 0.00 in 88 W/m2
18:24 52.5 °F 41.5 °F 30.19 in West 12.0 mph 20.0 mph 66 % 0.00 in 86 W/m2
18:29 52.5 °F 41.5 °F 30.19 in West 13.0 mph 22.0 mph 66 % 0.00 in 77 W/m2
18:34 52.5 °F 41.5 °F 30.19 in West 13.0 mph 22.0 mph 66 % 0.00 in 76 W/m2
18:39 52.3 °F 41.3 °F 30.19 in West 13.0 mph 23.0 mph 66 % 0.00 in 62 W/m2
18:44 52.3 °F 41.7 °F 30.18 in West 13.0 mph 23.0 mph 67 % 0.00 in 47 W/m2
18:49 52.2 °F 41.9 °F 30.18 in West 12.0 mph 18.0 mph 68 % 0.00 in 42 W/m2
18:54 52.0 °F 41.7 °F 30.18 in West 12.0 mph 20.0 mph 68 % 0.00 in 40 W/m2
18:59 51.8 °F 41.6 °F 30.18 in West 11.0 mph 20.0 mph 68 % 0.00 in 40 W/m2
19:04 51.6 °F 41.4 °F 30.18 in West 10.0 mph 18.0 mph 68 % 0.00 in 40 W/m2
19:09 51.6 °F 41.8 °F 30.18 in West 12.0 mph 19.0 mph 69 % 0.00 in 40 W/m2
19:14 51.4 °F 41.6 °F 30.18 in West 12.0 mph 19.0 mph 69 % 0.00 in 42 W/m2
19:19 51.4 °F 41.6 °F 30.18 in West 11.0 mph 18.0 mph 69 % 0.00 in 33 W/m2
19:20 51.4 °F 41.6 °F 30.18 in West 11.0 mph 18.0 mph 69 % 0.00 in 35 W/m2
19:25 51.3 °F 41.8 °F 30.18 in West 10.0 mph 18.0 mph 70 % 0.00 in 46 W/m2
19:26 51.3 °F 41.8 °F 30.18 in West 10.0 mph 18.0 mph 70 % 0.00 in 44 W/m2
19:31 51.3 °F 41.4 °F 30.18 in West 10.0 mph 18.0 mph 69 % 0.00 in 25 W/m2
19:36 51.3 °F 41.4 °F 30.18 in West 10.0 mph 16.0 mph 69 % 0.00 in 18 W/m2
19:41 51.1 °F 41.6 °F 30.18 in West 9.0 mph 16.0 mph 70 % 0.00 in 16 W/m2
19:46 50.9 °F 41.5 °F 30.18 in West 8.0 mph 14.0 mph 70 % 0.00 in 12 W/m2
19:51 50.7 °F 41.3 °F 30.17 in West 9.0 mph 16.0 mph 70 % 0.00 in 9 W/m2
19:56 50.7 °F 41.3 °F 30.17 in West 9.0 mph 16.0 mph 70 % 0.00 in 5 W/m2
20:01 50.5 °F 41.1 °F 30.17 in West 9.0 mph 15.0 mph 70 % 0.00 in 0 W/m2
20:06 50.5 °F 41.1 °F 30.17 in West 11.0 mph 23.0 mph 70 % 0.00 in 0 W/m2
20:11 50.5 °F 40.7 °F 30.17 in West 13.0 mph 25.0 mph 69 % 0.00 in 0 W/m2
20:16 50.4 °F 40.6 °F 30.17 in West 14.0 mph 25.0 mph 69 % 0.00 in 0 W/m2
20:22 50.4 °F 40.6 °F 30.17 in West 14.0 mph 22.0 mph 69 % 0.00 in 0 W/m2
20:27 50.4 °F 40.6 °F 30.17 in West 11.0 mph 22.0 mph 69 % 0.00 in 0 W/m2
20:32 50.4 °F 40.9 °F 30.17 in West 10.0 mph 18.0 mph 70 % 0.00 in 0 W/m2
20:37 50.2 °F 40.8 °F 30.17 in West 10.0 mph 21.0 mph 70 % 0.00 in 0 W/m2
20:42 50.2 °F 41.1 °F 30.17 in West 13.0 mph 26.0 mph 71 % 0.00 in 0 W/m2
20:47 50.2 °F 41.1 °F 30.17 in West 14.0 mph 26.0 mph 71 % 0.00 in 0 W/m2
20:52 50.2 °F 41.1 °F 30.17 in West 13.0 mph 23.0 mph 71 % 0.00 in 0 W/m2
20:57 50.0 °F 41.3 °F 30.17 in West 13.0 mph 25.0 mph 72 % 0.00 in 0 W/m2
21:02 50.2 °F 41.5 °F 30.17 in West 14.0 mph 25.0 mph 72 % 0.00 in 0 W/m2
21:07 50.0 °F 41.3 °F 30.17 in West 14.0 mph 25.0 mph 72 % 0.00 in 0 W/m2
21:12 50.0 °F 41.3 °F 30.17 in West 15.0 mph 25.0 mph 72 % 0.00 in 0 W/m2
21:17 50.0 °F 41.3 °F 30.17 in West 15.0 mph 25.0 mph 72 % 0.00 in 0 W/m2
21:22 50.0 °F 41.3 °F 30.17 in West 13.0 mph 22.0 mph 72 % 0.00 in 0 W/m2
21:27 50.0 °F 41.3 °F 30.17 in West 12.0 mph 23.0 mph 72 % 0.00 in 0 W/m2
21:32 50.0 °F 41.3 °F 30.17 in West 11.0 mph 23.0 mph 72 % 0.00 in 0 W/m2
21:37 49.8 °F 41.2 °F 30.17 in West 11.0 mph 20.0 mph 72 % 0.00 in 0 W/m2
21:42 49.8 °F 41.2 °F 30.17 in West 13.0 mph 21.0 mph 72 % 0.00 in 0 W/m2
21:47 49.8 °F 41.2 °F 30.17 in West 11.0 mph 21.0 mph 72 % 0.00 in 0 W/m2
21:52 49.8 °F 41.5 °F 30.17 in West 10.0 mph 18.0 mph 73 % 0.00 in 0 W/m2
21:57 49.8 °F 41.5 °F 30.17 in West 11.0 mph 18.0 mph 73 % 0.00 in 0 W/m2
22:02 49.8 °F 41.5 °F 30.17 in West 10.0 mph 18.0 mph 73 % 0.00 in 0 W/m2
22:07 49.8 °F 41.5 °F 30.17 in West 10.0 mph 16.0 mph 73 % 0.00 in 0 W/m2
22:12 49.8 °F 41.9 °F 30.17 in West 10.0 mph 16.0 mph 74 % 0.00 in 0 W/m2
22:17 49.6 °F 41.7 °F 30.17 in West 10.0 mph 19.0 mph 74 % 0.00 in 0 W/m2
22:22 49.6 °F 41.7 °F 30.16 in West 10.0 mph 20.0 mph 74 % 0.00 in 0 W/m2
22:27 49.6 °F 42.0 °F 30.16 in West 11.0 mph 20.0 mph 75 % 0.00 in 0 W/m2
22:32 49.6 °F 42.0 °F 30.16 in West 10.0 mph 22.0 mph 75 % 0.00 in 0 W/m2
22:37 49.6 °F 42.0 °F 30.16 in West 11.0 mph 22.0 mph 75 % 0.00 in 0 W/m2
22:42 49.6 °F 42.0 °F 30.15 in West 10.0 mph 21.0 mph 75 % 0.00 in 0 W/m2
22:47 49.5 °F 42.2 °F 30.15 in West 8.0 mph 14.0 mph 76 % 0.00 in 0 W/m2
22:52 49.5 °F 42.2 °F 30.15 in West 9.0 mph 16.0 mph 76 % 0.00 in 0 W/m2
22:57 49.6 °F 42.4 °F 30.15 in WSW 9.0 mph 16.0 mph 76 % 0.00 in 0 W/m2
23:02 49.6 °F 42.4 °F 30.15 in WSW 8.0 mph 14.0 mph 76 % 0.00 in 0 W/m2
23:07 49.6 °F 42.4 °F 30.14 in WSW 8.0 mph 15.0 mph 76 % 0.00 in 0 W/m2
23:12 49.6 °F 42.4 °F 30.14 in WSW 7.0 mph 15.0 mph 76 % 0.00 in 0 W/m2
23:17 49.6 °F 42.4 °F 30.14 in WSW 7.0 mph 18.0 mph 76 % 0.00 in 0 W/m2
23:22 49.6 °F 42.4 °F 30.14 in WSW 8.0 mph 18.0 mph 76 % 0.00 in 0 W/m2
23:27 49.6 °F 42.4 °F 30.13 in SW 6.0 mph 16.0 mph 76 % 0.00 in 0 W/m2
23:32 49.6 °F 42.4 °F 30.13 in WSW 6.0 mph 12.0 mph 76 % 0.00 in 0 W/m2
23:37 49.5 °F 42.5 °F 30.13 in SW 6.0 mph 12.0 mph 77 % 0.00 in 0 W/m2
23:42 49.5 °F 42.5 °F 30.12 in SW 6.0 mph 11.0 mph 77 % 0.00 in 0 W/m2
23:47 49.5 °F 42.5 °F 30.12 in SW 6.0 mph 11.0 mph 77 % 0.00 in 0 W/m2
23:53 49.3 °F 42.4 °F 30.12 in SW 6.0 mph 11.0 mph 77 % 0.00 in 0 W/m2
23:58 49.3 °F 42.7 °F 30.12 in WSW 7.0 mph 19.0 mph 78 % 0.00 in 0 W/m2
Delerius-Weather
Compliments of Weather Underground - 2.25 mb

Data updates at regular intervals.